Sankuniki — JD2465 — position and weather

sailwx.info

Track history (hours):
 
Tides and Currents Weather Stations Pressure Air Temp Water Temp Dewpoint Dewpoint Depression Visibility Wind Speed Wind Dir Waves Ship Positions

Sankuniki

Last reported at 2018-Apr-25 13:58 UTC. Time now 2018-Apr-25 14:19 UTC.
Position N 35°23' E 139°40'.

Length 71 m; draft 5 m.

Type: Cargo ship. MMSI: 431000269.

Date/timePositionNaut miles runAvg speedWind from/ knotsBaromVisibWave heightAir tempDewpointWater temp
2018-Apr-25 13:58N 35°23' E 139°40'0 0.1
2018-Apr-25 13:28N 35°23' E 139°40'0 0.1
2018-Apr-25 12:58N 35°23' E 139°40'0 0.0
2018-Apr-25 12:28N 35°23' E 139°40'0 0.1
2018-Apr-25 11:58N 35°23' E 139°40'0 0.1
2018-Apr-25 11:28N 35°23' E 139°40'0 0.0
2018-Apr-25 10:58N 35°23' E 139°40'0 0.1
2018-Apr-25 10:28N 35°23' E 139°40'0 0.1
2018-Apr-25 09:58N 35°23' E 139°40'0 0.1
2018-Apr-25 09:28N 35°23' E 139°40'0 0.0
2018-Apr-25 08:58N 35°23' E 139°40'0 0.0
2018-Apr-25 08:28N 35°23' E 139°40'0 0.1
2018-Apr-25 07:58N 35°23' E 139°40'0 0.0
2018-Apr-25 07:28N 35°23' E 139°40'0 0.0
2018-Apr-25 06:58N 35°23' E 139°40'0 0.1
2018-Apr-25 06:28N 35°23' E 139°40'0 0.1
2018-Apr-25 05:58N 35°23' E 139°40'0 0.1
2018-Apr-25 05:28N 35°23' E 139°40'0 0.0
2018-Apr-25 04:58N 35°23' E 139°40'0 0.1
2018-Apr-25 04:28N 35°23' E 139°40'0 0.2
2018-Apr-25 03:58N 35°23' E 139°40'0 0.1
2018-Apr-25 03:28N 35°23' E 139°40'0 0.0
2018-Apr-25 02:58N 35°23' E 139°40'0 0.0
2018-Apr-25 02:28N 35°23' E 139°40'0 0.6
2018-Apr-25 02:00N 35°24' E 139°40'1 1.7
2018-Apr-25 01:30N 35°24' E 139°39'1 2.0
2018-Apr-25 01:00N 35°24' E 139°40'0 0.1
2018-Apr-25 00:28N 35°24' E 139°40'0 0.0
2018-Apr-24 23:58N 35°24' E 139°40'0 0.0
2018-Apr-24 23:28N 35°24' E 139°40'0 0.0
2018-Apr-24 22:58N 35°24' E 139°40'0 0.0
2018-Apr-24 22:28N 35°24' E 139°40'0 0.0
2018-Apr-24 21:58N 35°24' E 139°40'0 0.0
2018-Apr-24 21:25N 35°24' E 139°40'0 0.0
2018-Apr-24 20:58N 35°24' E 139°40'0 0.0
2018-Apr-24 20:25N 35°24' E 139°40'0 0.1
2018-Apr-24 19:58N 35°24' E 139°40'0 0.0
2018-Apr-24 19:28N 35°24' E 139°40'0 0.0
2018-Apr-24 18:58N 35°24' E 139°40'0 0.0
2018-Apr-24 18:28N 35°24' E 139°40'0 0.0
2018-Apr-24 17:58N 35°24' E 139°40'0 0.0
2018-Apr-24 17:28N 35°24' E 139°40'0 0.0
2018-Apr-24 16:58N 35°24' E 139°40'0 0.0
2018-Apr-24 16:28N 35°24' E 139°40'0 0.0
2018-Apr-24 15:58N 35°24' E 139°40'1 1.4
2018-Apr-24 15:31N 35°23' E 139°41'5 8.9
2018-Apr-24 15:00N 35°25' E 139°46'5 9.6
2018-Apr-24 14:29N 35°23' E 139°51'2 4.9
2018-Apr-24 13:59N 35°22' E 139°53'0 0.0
2018-Apr-24 13:30N 35°22' E 139°53'0 0.0
2018-Apr-24 13:00N 35°22' E 139°53'0 0.0
2018-Apr-24 12:21N 35°22' E 139°53'0 0.0
2018-Apr-24 12:00N 35°22' E 139°53'0 0.0
2018-Apr-24 11:30N 35°22' E 139°53'0 0.0
2018-Apr-24 10:57N 35°22' E 139°53'0 0.0
2018-Apr-24 10:30N 35°22' E 139°53'0 0.0
2018-Apr-24 10:00N 35°22' E 139°53'0 0.0
2018-Apr-24 09:27N 35°22' E 139°53'0 0.0
2018-Apr-24 09:00N 35°22' E 139°53'0 0.0
2018-Apr-24 08:30N 35°22' E 139°53'0 0.0
2018-Apr-24 08:00N 35°22' E 139°53'0 0.0
2018-Apr-24 07:30N 35°22' E 139°53'0 0.0
2018-Apr-24 07:00N 35°22' E 139°53'0 0.0
2018-Apr-24 06:27N 35°22' E 139°53'0 0.0
2018-Apr-24 06:00N 35°22' E 139°53'0 0.0
2018-Apr-24 05:20N 35°22' E 139°53'0 0.0
2018-Apr-24 04:59N 35°22' E 139°53'0 0.0
2018-Apr-24 04:30N 35°22' E 139°53'0 0.0
2018-Apr-24 04:00N 35°22' E 139°53'0 0.0
2018-Apr-24 03:27N 35°22' E 139°53'0 0.0
2018-Apr-24 03:00N 35°22' E 139°53'0 0.0
2018-Apr-24 02:27N 35°22' E 139°53'0 0.0
2018-Apr-24 02:00N 35°22' E 139°53'0 0.1
2018-Apr-24 01:24N 35°22' E 139°54'0 0.0
2018-Apr-24 00:53N 35°22' E 139°54'0 0.0
2018-Apr-24 00:27N 35°22' E 139°54'0 0.0
2018-Apr-23 23:51N 35°22' E 139°54'0 0.0
2018-Apr-23 23:30N 35°22' E 139°54'0 0.0
2018-Apr-23 23:00N 35°22' E 139°54'0 0.0
2018-Apr-23 22:26N 35°22' E 139°54'0 0.0
2018-Apr-23 21:57N 35°22' E 139°54'0 0.0
2018-Apr-23 21:26N 35°22' E 139°54'0 0.0
2018-Apr-23 20:53N 35°22' E 139°54'0 0.0
2018-Apr-23 20:26N 35°22' E 139°54'0 0.0
2018-Apr-23 20:00N 35°22' E 139°54'0 0.0
2018-Apr-23 19:23N 35°22' E 139°54'0 0.0
2018-Apr-23 18:50N 35°22' E 139°54'0 0.0
2018-Apr-23 18:27N 35°22' E 139°54'0 0.0
2018-Apr-23 17:59N 35°22' E 139°54'0 0.0
2018-Apr-23 17:26N 35°22' E 139°54'0 0.0
2018-Apr-23 17:00N 35°22' E 139°54'0 0.0
2018-Apr-23 16:29N 35°22' E 139°54'0 0.0
2018-Apr-23 15:44N 35°22' E 139°54'0 0.0
2018-Apr-23 15:17N 35°22' E 139°54'0 0.0
2018-Apr-23 14:54N 35°22' E 139°54'0 0.0
2018-Apr-23 14:29N 35°22' E 139°54'0 0.0
2018-Apr-23 13:56N 35°22' E 139°54'0 0.1
2018-Apr-23 13:23N 35°22' E 139°53'0 0.1
2018-Apr-23 12:50N 35°22' E 139°54'0 0.0
2018-Apr-23 12:30N 35°22' E 139°54'0 0.0
2018-Apr-23 11:59N 35°22' E 139°54'0 0.0
2018-Apr-23 11:30N 35°22' E 139°54'0 0.0
2018-Apr-23 10:56N 35°22' E 139°54'0 0.0
2018-Apr-23 10:26N 35°22' E 139°54'0 0.0
2018-Apr-23 09:59N 35°22' E 139°54'0 0.0
2018-Apr-23 09:11N 35°22' E 139°54'0 0.0
2018-Apr-23 08:56N 35°22' E 139°54'0 0.0
2018-Apr-23 08:29N 35°22' E 139°54'0 0.0
2018-Apr-23 07:59N 35°22' E 139°54'0 0.0
2018-Apr-23 07:29N 35°22' E 139°54'0 0.0
2018-Apr-23 06:59N 35°22' E 139°54'0 0.2
2018-Apr-23 06:30N 35°22' E 139°54'2 4.3
2018-Apr-23 06:00N 35°22' E 139°51'0 0.2
2018-Apr-23 05:29N 35°22' E 139°51'0 0.0
2018-Apr-23 04:59N 35°22' E 139°51'0 0.0
2018-Apr-23 04:17N 35°22' E 139°51'0 0.0
2018-Apr-23 03:53N 35°22' E 139°51'0 0.0
2018-Apr-23 03:29N 35°22' E 139°51'0 0.0
2018-Apr-23 02:59N 35°22' E 139°51'0 0.0
2018-Apr-23 02:23N 35°22' E 139°51'0 0.0
2018-Apr-23 01:59N 35°22' E 139°51'0 0.0
2018-Apr-23 01:23N 35°22' E 139°51'0 0.0
2018-Apr-23 00:59N 35°22' E 139°51'0 0.0
2018-Apr-23 00:29N 35°22' E 139°51'1 2.6
2018-Apr-22 23:59N 35°22' E 139°49'0 0.1
2018-Apr-22 23:29N 35°22' E 139°49'0 0.0
2018-Apr-22 22:59N 35°22' E 139°49'0 0.0
2018-Apr-22 22:29N 35°22' E 139°49'0 0.0
2018-Apr-22 21:59N 35°22' E 139°49'0 0.0
2018-Apr-22 21:29N 35°22' E 139°49'0 0.1
2018-Apr-22 20:53N 35°22' E 139°49'0 0.0
2018-Apr-22 20:29N 35°22' E 139°49'0 0.1
2018-Apr-22 19:59N 35°22' E 139°49'0 0.1
2018-Apr-22 19:29N 35°22' E 139°49'0 0.0
2018-Apr-22 18:56N 35°22' E 139°49'0 0.0
2018-Apr-22 18:26N 35°22' E 139°49'0 0.0
2018-Apr-22 17:59N 35°22' E 139°49'0 0.0
2018-Apr-22 17:29N 35°22' E 139°49'0 0.0
2018-Apr-22 16:59N 35°22' E 139°49'0 0.0
2018-Apr-22 16:29N 35°22' E 139°49'0 0.0
2018-Apr-22 15:59N 35°22' E 139°49'0 0.0
2018-Apr-22 15:30N 35°22' E 139°49'3 6.9
2018-Apr-22 15:00N 35°22' E 139°45'510.3
2018-Apr-22 14:30N 35°17' E 139°45'611.0
2018-Apr-22 14:00N 35°12' E 139°47'611.8
2018-Apr-22 13:30N 35°06' E 139°45'611.6
2018-Apr-22 13:00N 35°00' E 139°44'510.5
2018-Apr-22 12:30N 34°55' E 139°46'10 9.3
2018-Apr-22 11:23N 34°54' E 139°59'  
2018-Apr-19 05:31N 35°01' E 140°11'211.9
2018-Apr-19 05:19N 34°59' E 140°09'1811.2
2018-Apr-19 03:41N 34°52' E 139°48'2 8.7
2018-Apr-19 03:29N 34°53' E 139°47'611.6
2018-Apr-19 03:00N 34°58' E 139°43'611.5
2018-Apr-19 02:30N 35°04' E 139°44'611.6
2018-Apr-19 02:00N 35°10' E 139°46'612.8
2018-Apr-19 01:31N 35°16' E 139°46'612.3
2018-Apr-19 01:00N 35°21' E 139°42'510.3
2018-Apr-19 00:30N 35°25' E 139°47'510.1
2018-Apr-19 00:00N 35°22' E 139°52'2 3.2
2018-Apr-18 23:30N 35°22' E 139°53'0 0.0
2018-Apr-18 23:00N 35°22' E 139°53'0 0.0
2018-Apr-18 22:30N 35°22' E 139°53'0 0.0
2018-Apr-18 22:00N 35°22' E 139°53'0 0.0
2018-Apr-18 21:30N 35°22' E 139°53'0 0.0
2018-Apr-18 21:00N 35°22' E 139°53'0 0.0
2018-Apr-18 20:30N 35°22' E 139°53'0 0.0
2018-Apr-18 20:00N 35°22' E 139°53'0 0.0
2018-Apr-18 19:30N 35°22' E 139°53'0 0.0
2018-Apr-18 19:00N 35°22' E 139°53'0 0.0
2018-Apr-18 18:30N 35°22' E 139°53'0 0.0
2018-Apr-18 18:00N 35°22' E 139°53'0 0.0
2018-Apr-18 17:29N 35°22' E 139°53'0 0.0
2018-Apr-18 17:00N 35°22' E 139°53'0 0.0
2018-Apr-18 16:30N 35°22' E 139°53'0 0.0
2018-Apr-18 16:00N 35°22' E 139°53'0 0.0
2018-Apr-18 15:30N 35°22' E 139°53'0 0.0
2018-Apr-18 15:01N 35°22' E 139°53'0 0.0
2018-Apr-18 14:31N 35°22' E 139°53'0 0.0
2018-Apr-18 14:00N 35°22' E 139°53'0 0.0
2018-Apr-18 13:30N 35°22' E 139°53'0 0.0
2018-Apr-18 13:01N 35°22' E 139°53'0 0.0
2018-Apr-18 12:30N 35°22' E 139°53'0 0.0
2018-Apr-18 12:00N 35°22' E 139°53'0 0.0
2018-Apr-18 11:30N 35°22' E 139°53'0 0.0
2018-Apr-18 11:00N 35°22' E 139°53'2 3.8
2018-Apr-18 10:30N 35°23' E 139°51'511.0
2018-Apr-18 10:00N 35°28' E 139°50'713.2
2018-Apr-18 09:29N 35°32' E 139°57'613.4
2018-Apr-18 09:00N 35°35' E 140°03'2 4.1
2018-Apr-18 08:30N 35°37' E 140°05'0 0.0
2018-Apr-18 08:01N 35°37' E 140°05'0 0.0
2018-Apr-18 07:30N 35°37' E 140°05'0 0.0
2018-Apr-18 07:01N 35°37' E 140°05'0 0.0
2018-Apr-18 06:30N 35°37' E 140°05'0 0.0
2018-Apr-18 06:00N 35°37' E 140°05'0 0.0
2018-Apr-18 05:30N 35°37' E 140°05'0 0.0
2018-Apr-18 05:01N 35°37' E 140°05'0 0.0
2018-Apr-18 04:30N 35°37' E 140°05'0 0.0
2018-Apr-18 04:00N 35°37' E 140°05'1 2.3
2018-Apr-18 03:31N 35°36' E 140°05'5 9.3
2018-Apr-18 03:00N 35°34' E 139°60'1 2.0
2018-Apr-18 02:30N 35°34' E 139°58'4 8.6
2018-Apr-18 02:00N 35°35' E 139°53'5 0.2
2018-Apr-16 23:01N 35°38' E 139°48'0 0.5
2018-Apr-16 22:58N 35°38' E 139°48'3 5.5
2018-Apr-16 22:25N 35°36' E 139°51'0 0.0
2018-Apr-16 21:55N 35°36' E 139°51'0 0.0
2018-Apr-16 16:01N 35°36' E 139°51'0 0.1
2018-Apr-16 15:49N 35°36' E 139°51'0 0.1
2018-Apr-16 15:22N 35°36' E 139°51'0 0.0
2018-Apr-16 14:40N 35°36' E 139°51'0 0.0
2018-Apr-16 14:25N 35°36' E 139°51'0 0.0
2018-Apr-16 12:31N 35°36' E 139°51'0 0.0
2018-Apr-16 12:07N 35°36' E 139°51'0 0.0
2018-Apr-16 09:39N 35°36' E 139°51'0 0.5
2018-Apr-16 09:29N 35°36' E 139°51'611.4
2018-Apr-16 09:00N 35°30' E 139°53'611.4
2018-Apr-16 08:31N 35°26' E 139°48'611.9
2018-Apr-16 08:00N 35°21' E 139°45'611.4
2018-Apr-16 07:30N 35°15' E 139°47'612.2
2018-Apr-16 07:00N 35°09' E 139°45'611.6
2018-Apr-16 06:31N 35°04' E 139°42'612.4
2018-Apr-16 06:00N 35°00' E 139°36'1313.1
2018-Apr-16 05:00N 34°52' E 139°23'713.3
2018-Apr-16 04:28N 34°47' E 139°17'612.6
2018-Apr-16 04:00N 34°43' E 139°12'612.7
2018-Apr-16 03:30N 34°40' E 139°05'712.7
2018-Apr-16 02:55N 34°36' E 138°58'612.9
2018-Apr-16 02:27N 34°35' E 138°50'611.1
2018-Apr-16 01:53N 34°36' E 138°43'411.2
2018-Apr-16 01:30N 34°38' E 138°38'611.5
2018-Apr-16 00:59N 34°41' E 138°32'611.8
2018-Apr-16 00:31N 34°44' E 138°26'612.1
2018-Apr-16 00:00N 34°47' E 138°20'1 0.5
2018-Apr-15 21:18N 34°47' E 138°18'1 3.1
2018-Apr-15 20:59N 34°46' E 138°19'1 2.6
2018-Apr-15 20:31N 34°48' E 138°20'0 0.9
2018-Apr-15 20:00N 34°47' E 138°20'4 7.4
2018-Apr-15 19:29N 34°43' E 138°19'611.3
2018-Apr-15 19:00N 34°38' E 138°18'5 9.7
2018-Apr-15 18:30N 34°34' E 138°15'4612.1
2018-Apr-15 14:41N 34°35' E 137°19'412.4
2018-Apr-15 14:22N 34°34' E 137°15'  
Track history (hours):
 
Tides and Currents Weather Stations Pressure Air Temp Water Temp Dewpoint Dewpoint Depression Visibility Wind Speed Wind Dir Waves Ship Positions

Sankuniki

Last reported at 2018-Apr-25 13:58 UTC. Time now 2018-Apr-25 14:19 UTC.
Position N 35°23' E 139°40'.

Length 71 m; draft 5 m.

Type: Cargo ship. MMSI: 431000269.

Date/timePositionNaut miles runAvg speedWind from/ knotsBaromVisibWave heightAir tempDewpointWater temp
2018-Apr-25 13:58N 35°23' E 139°40'0 0.1
2018-Apr-25 13:28N 35°23' E 139°40'0 0.1
2018-Apr-25 12:58N 35°23' E 139°40'0 0.0
2018-Apr-25 12:28N 35°23' E 139°40'0 0.1
2018-Apr-25 11:58N 35°23' E 139°40'0 0.1
2018-Apr-25 11:28N 35°23' E 139°40'0 0.0
2018-Apr-25 10:58N 35°23' E 139°40'0 0.1
2018-Apr-25 10:28N 35°23' E 139°40'0 0.1
2018-Apr-25 09:58N 35°23' E 139°40'0 0.1
2018-Apr-25 09:28N 35°23' E 139°40'0 0.0
2018-Apr-25 08:58N 35°23' E 139°40'0 0.0
2018-Apr-25 08:28N 35°23' E 139°40'0 0.1
2018-Apr-25 07:58N 35°23' E 139°40'0 0.0
2018-Apr-25 07:28N 35°23' E 139°40'0 0.0
2018-Apr-25 06:58N 35°23' E 139°40'0 0.1
2018-Apr-25 06:28N 35°23' E 139°40'0 0.1
2018-Apr-25 05:58N 35°23' E 139°40'0 0.1
2018-Apr-25 05:28N 35°23' E 139°40'0 0.0
2018-Apr-25 04:58N 35°23' E 139°40'0 0.1
2018-Apr-25 04:28N 35°23' E 139°40'0 0.2
2018-Apr-25 03:58N 35°23' E 139°40'0 0.1
2018-Apr-25 03:28N 35°23' E 139°40'0 0.0
2018-Apr-25 02:58N 35°23' E 139°40'0 0.0
2018-Apr-25 02:28N 35°23' E 139°40'0 0.6
2018-Apr-25 02:00N 35°24' E 139°40'1 1.7
2018-Apr-25 01:30N 35°24' E 139°39'1 2.0
2018-Apr-25 01:00N 35°24' E 139°40'0 0.1
2018-Apr-25 00:28N 35°24' E 139°40'0 0.0
2018-Apr-24 23:58N 35°24' E 139°40'0 0.0
2018-Apr-24 23:28N 35°24' E 139°40'0 0.0
2018-Apr-24 22:58N 35°24' E 139°40'0 0.0
2018-Apr-24 22:28N 35°24' E 139°40'0 0.0
2018-Apr-24 21:58N 35°24' E 139°40'0 0.0
2018-Apr-24 21:25N 35°24' E 139°40'0 0.0
2018-Apr-24 20:58N 35°24' E 139°40'0 0.0
2018-Apr-24 20:25N 35°24' E 139°40'0 0.1
2018-Apr-24 19:58N 35°24' E 139°40'0 0.0
2018-Apr-24 19:28N 35°24' E 139°40'0 0.0
2018-Apr-24 18:58N 35°24' E 139°40'0 0.0
2018-Apr-24 18:28N 35°24' E 139°40'0 0.0
2018-Apr-24 17:58N 35°24' E 139°40'0 0.0
2018-Apr-24 17:28N 35°24' E 139°40'0 0.0
2018-Apr-24 16:58N 35°24' E 139°40'0 0.0
2018-Apr-24 16:28N 35°24' E 139°40'0 0.0
2018-Apr-24 15:58N 35°24' E 139°40'1 1.4
2018-Apr-24 15:31N 35°23' E 139°41'5 8.9
2018-Apr-24 15:00N 35°25' E 139°46'5 9.6
2018-Apr-24 14:29N 35°23' E 139°51'2 4.9
2018-Apr-24 13:59N 35°22' E 139°53'0 0.0
2018-Apr-24 13:30N 35°22' E 139°53'0 0.0
2018-Apr-24 13:00N 35°22' E 139°53'0 0.0
2018-Apr-24 12:21N 35°22' E 139°53'0 0.0
2018-Apr-24 12:00N 35°22' E 139°53'0 0.0
2018-Apr-24 11:30N 35°22' E 139°53'0 0.0
2018-Apr-24 10:57N 35°22' E 139°53'0 0.0
2018-Apr-24 10:30N 35°22' E 139°53'0 0.0
2018-Apr-24 10:00N 35°22' E 139°53'0 0.0
2018-Apr-24 09:27N 35°22' E 139°53'0 0.0
2018-Apr-24 09:00N 35°22' E 139°53'0 0.0
2018-Apr-24 08:30N 35°22' E 139°53'0 0.0
2018-Apr-24 08:00N 35°22' E 139°53'0 0.0
2018-Apr-24 07:30N 35°22' E 139°53'0 0.0
2018-Apr-24 07:00N 35°22' E 139°53'0 0.0
2018-Apr-24 06:27N 35°22' E 139°53'0 0.0
2018-Apr-24 06:00N 35°22' E 139°53'0 0.0
2018-Apr-24 05:20N 35°22' E 139°53'0 0.0
2018-Apr-24 04:59N 35°22' E 139°53'0 0.0
2018-Apr-24 04:30N 35°22' E 139°53'0 0.0
2018-Apr-24 04:00N 35°22' E 139°53'0 0.0
2018-Apr-24 03:27N 35°22' E 139°53'0 0.0
2018-Apr-24 03:00N 35°22' E 139°53'0 0.0
2018-Apr-24 02:27N 35°22' E 139°53'0 0.0
2018-Apr-24 02:00N 35°22' E 139°53'0 0.1
2018-Apr-24 01:24N 35°22' E 139°54'0 0.0
2018-Apr-24 00:53N 35°22' E 139°54'0 0.0
2018-Apr-24 00:27N 35°22' E 139°54'0 0.0
2018-Apr-23 23:51N 35°22' E 139°54'0 0.0
2018-Apr-23 23:30N 35°22' E 139°54'0 0.0
2018-Apr-23 23:00N 35°22' E 139°54'0 0.0
2018-Apr-23 22:26N 35°22' E 139°54'0 0.0
2018-Apr-23 21:57N 35°22' E 139°54'0 0.0
2018-Apr-23 21:26N 35°22' E 139°54'0 0.0
2018-Apr-23 20:53N 35°22' E 139°54'0 0.0
2018-Apr-23 20:26N 35°22' E 139°54'0 0.0
2018-Apr-23 20:00N 35°22' E 139°54'0 0.0
2018-Apr-23 19:23N 35°22' E 139°54'0 0.0
2018-Apr-23 18:50N 35°22' E 139°54'0 0.0
2018-Apr-23 18:27N 35°22' E 139°54'0 0.0
2018-Apr-23 17:59N 35°22' E 139°54'0 0.0
2018-Apr-23 17:26N 35°22' E 139°54'0 0.0
2018-Apr-23 17:00N 35°22' E 139°54'0 0.0
2018-Apr-23 16:29N 35°22' E 139°54'0 0.0
2018-Apr-23 15:44N 35°22' E 139°54'0 0.0
2018-Apr-23 15:17N 35°22' E 139°54'0 0.0
2018-Apr-23 14:54N 35°22' E 139°54'0 0.0
2018-Apr-23 14:29N 35°22' E 139°54'0 0.0
2018-Apr-23 13:56N 35°22' E 139°54'0 0.1
2018-Apr-23 13:23N 35°22' E 139°53'0 0.1
2018-Apr-23 12:50N 35°22' E 139°54'0 0.0
2018-Apr-23 12:30N 35°22' E 139°54'0 0.0
2018-Apr-23 11:59N 35°22' E 139°54'0 0.0
2018-Apr-23 11:30N 35°22' E 139°54'0 0.0
2018-Apr-23 10:56N 35°22' E 139°54'0 0.0
2018-Apr-23 10:26N 35°22' E 139°54'0 0.0
2018-Apr-23 09:59N 35°22' E 139°54'0 0.0
2018-Apr-23 09:11N 35°22' E 139°54'0 0.0
2018-Apr-23 08:56N 35°22' E 139°54'0 0.0
2018-Apr-23 08:29N 35°22' E 139°54'0 0.0
2018-Apr-23 07:59N 35°22' E 139°54'0 0.0
2018-Apr-23 07:29N 35°22' E 139°54'0 0.0
2018-Apr-23 06:59N 35°22' E 139°54'0 0.2
2018-Apr-23 06:30N 35°22' E 139°54'2 4.3
2018-Apr-23 06:00N 35°22' E 139°51'0 0.2
2018-Apr-23 05:29N 35°22' E 139°51'0 0.0
2018-Apr-23 04:59N 35°22' E 139°51'0 0.0
2018-Apr-23 04:17N 35°22' E 139°51'0 0.0
2018-Apr-23 03:53N 35°22' E 139°51'0 0.0
2018-Apr-23 03:29N 35°22' E 139°51'0 0.0
2018-Apr-23 02:59N 35°22' E 139°51'0 0.0
2018-Apr-23 02:23N 35°22' E 139°51'0 0.0
2018-Apr-23 01:59N 35°22' E 139°51'0 0.0
2018-Apr-23 01:23N 35°22' E 139°51'0 0.0
2018-Apr-23 00:59N 35°22' E 139°51'0 0.0
2018-Apr-23 00:29N 35°22' E 139°51'1 2.6
2018-Apr-22 23:59N 35°22' E 139°49'0 0.1
2018-Apr-22 23:29N 35°22' E 139°49'0 0.0
2018-Apr-22 22:59N 35°22' E 139°49'0 0.0
2018-Apr-22 22:29N 35°22' E 139°49'0 0.0
2018-Apr-22 21:59N 35°22' E 139°49'0 0.0
2018-Apr-22 21:29N 35°22' E 139°49'0 0.1
2018-Apr-22 20:53N 35°22' E 139°49'0 0.0
2018-Apr-22 20:29N 35°22' E 139°49'0 0.1
2018-Apr-22 19:59N 35°22' E 139°49'0 0.1
2018-Apr-22 19:29N 35°22' E 139°49'0 0.0
2018-Apr-22 18:56N 35°22' E 139°49'0 0.0
2018-Apr-22 18:26N 35°22' E 139°49'0 0.0
2018-Apr-22 17:59N 35°22' E 139°49'0 0.0
2018-Apr-22 17:29N 35°22' E 139°49'0 0.0
2018-Apr-22 16:59N 35°22' E 139°49'0 0.0
2018-Apr-22 16:29N 35°22' E 139°49'0 0.0
2018-Apr-22 15:59N 35°22' E 139°49'0 0.0
2018-Apr-22 15:30N 35°22' E 139°49'3 6.9
2018-Apr-22 15:00N 35°22' E 139°45'510.3
2018-Apr-22 14:30N 35°17' E 139°45'611.0
2018-Apr-22 14:00N 35°12' E 139°47'611.8
2018-Apr-22 13:30N 35°06' E 139°45'611.6
2018-Apr-22 13:00N 35°00' E 139°44'510.5
2018-Apr-22 12:30N 34°55' E 139°46'10 9.3
2018-Apr-22 11:23N 34°54' E 139°59'  
2018-Apr-19 05:31N 35°01' E 140°11'211.9
2018-Apr-19 05:19N 34°59' E 140°09'1811.2
2018-Apr-19 03:41N 34°52' E 139°48'2 8.7
2018-Apr-19 03:29N 34°53' E 139°47'611.6
2018-Apr-19 03:00N 34°58' E 139°43'611.5
2018-Apr-19 02:30N 35°04' E 139°44'611.6
2018-Apr-19 02:00N 35°10' E 139°46'612.8
2018-Apr-19 01:31N 35°16' E 139°46'612.3
2018-Apr-19 01:00N 35°21' E 139°42'510.3
2018-Apr-19 00:30N 35°25' E 139°47'510.1
2018-Apr-19 00:00N 35°22' E 139°52'2 3.2
2018-Apr-18 23:30N 35°22' E 139°53'0 0.0
2018-Apr-18 23:00N 35°22' E 139°53'0 0.0
2018-Apr-18 22:30N 35°22' E 139°53'0 0.0
2018-Apr-18 22:00N 35°22' E 139°53'0 0.0
2018-Apr-18 21:30N 35°22' E 139°53'0 0.0
2018-Apr-18 21:00N 35°22' E 139°53'0 0.0
2018-Apr-18 20:30N 35°22' E 139°53'0 0.0
2018-Apr-18 20:00N 35°22' E 139°53'0 0.0
2018-Apr-18 19:30N 35°22' E 139°53'0 0.0
2018-Apr-18 19:00N 35°22' E 139°53'0 0.0
2018-Apr-18 18:30N 35°22' E 139°53'0 0.0
2018-Apr-18 18:00N 35°22' E 139°53'0 0.0
2018-Apr-18 17:29N 35°22' E 139°53'0 0.0
2018-Apr-18 17:00N 35°22' E 139°53'0 0.0
2018-Apr-18 16:30N 35°22' E 139°53'0 0.0
2018-Apr-18 16:00N 35°22' E 139°53'0 0.0
2018-Apr-18 15:30N 35°22' E 139°53'0 0.0
2018-Apr-18 15:01N 35°22' E 139°53'0 0.0
2018-Apr-18 14:31N 35°22' E 139°53'0 0.0
2018-Apr-18 14:00N 35°22' E 139°53'0 0.0
2018-Apr-18 13:30N 35°22' E 139°53'0 0.0
2018-Apr-18 13:01N 35°22' E 139°53'0 0.0
2018-Apr-18 12:30N 35°22' E 139°53'0 0.0
2018-Apr-18 12:00N 35°22' E 139°53'0 0.0
2018-Apr-18 11:30N 35°22' E 139°53'0 0.0
2018-Apr-18 11:00N 35°22' E 139°53'2 3.8
2018-Apr-18 10:30N 35°23' E 139°51'511.0
2018-Apr-18 10:00N 35°28' E 139°50'713.2
2018-Apr-18 09:29N 35°32' E 139°57'613.4
2018-Apr-18 09:00N 35°35' E 140°03'2 4.1
2018-Apr-18 08:30N 35°37' E 140°05'0 0.0
2018-Apr-18 08:01N 35°37' E 140°05'0 0.0
2018-Apr-18 07:30N 35°37' E 140°05'0 0.0
2018-Apr-18 07:01N 35°37' E 140°05'0 0.0
2018-Apr-18 06:30N 35°37' E 140°05'0 0.0
2018-Apr-18 06:00N 35°37' E 140°05'0 0.0
2018-Apr-18 05:30N 35°37' E 140°05'0 0.0
2018-Apr-18 05:01N 35°37' E 140°05'0 0.0
2018-Apr-18 04:30N 35°37' E 140°05'0 0.0
2018-Apr-18 04:00N 35°37' E 140°05'1 2.3
2018-Apr-18 03:31N 35°36' E 140°05'5 9.3
2018-Apr-18 03:00N 35°34' E 139°60'1 2.0
2018-Apr-18 02:30N 35°34' E 139°58'4 8.6
2018-Apr-18 02:00N 35°35' E 139°53'5 0.2
2018-Apr-16 23:01N 35°38' E 139°48'0 0.5
2018-Apr-16 22:58N 35°38' E 139°48'3 5.5
2018-Apr-16 22:25N 35°36' E 139°51'0 0.0
2018-Apr-16 21:55N 35°36' E 139°51'0 0.0
2018-Apr-16 16:01N 35°36' E 139°51'0 0.1
2018-Apr-16 15:49N 35°36' E 139°51'0 0.1
2018-Apr-16 15:22N 35°36' E 139°51'0 0.0
2018-Apr-16 14:40N 35°36' E 139°51'0 0.0
2018-Apr-16 14:25N 35°36' E 139°51'0 0.0
2018-Apr-16 12:31N 35°36' E 139°51'0 0.0
2018-Apr-16 12:07N 35°36' E 139°51'0 0.0
2018-Apr-16 09:39N 35°36' E 139°51'0 0.5
2018-Apr-16 09:29N 35°36' E 139°51'611.4
2018-Apr-16 09:00N 35°30' E 139°53'611.4
2018-Apr-16 08:31N 35°26' E 139°48'611.9
2018-Apr-16 08:00N 35°21' E 139°45'611.4
2018-Apr-16 07:30N 35°15' E 139°47'612.2
2018-Apr-16 07:00N 35°09' E 139°45'611.6
2018-Apr-16 06:31N 35°04' E 139°42'612.4
2018-Apr-16 06:00N 35°00' E 139°36'1313.1
2018-Apr-16 05:00N 34°52' E 139°23'713.3
2018-Apr-16 04:28N 34°47' E 139°17'612.6
2018-Apr-16 04:00N 34°43' E 139°12'612.7
2018-Apr-16 03:30N 34°40' E 139°05'712.7
2018-Apr-16 02:55N 34°36' E 138°58'612.9
2018-Apr-16 02:27N 34°35' E 138°50'611.1
2018-Apr-16 01:53N 34°36' E 138°43'411.2
2018-Apr-16 01:30N 34°38' E 138°38'611.5
2018-Apr-16 00:59N 34°41' E 138°32'611.8
2018-Apr-16 00:31N 34°44' E 138°26'612.1
2018-Apr-16 00:00N 34°47' E 138°20'1 0.5
2018-Apr-15 21:18N 34°47' E 138°18'1 3.1
2018-Apr-15 20:59N 34°46' E 138°19'1 2.6
2018-Apr-15 20:31N 34°48' E 138°20'0 0.9
2018-Apr-15 20:00N 34°47' E 138°20'4 7.4
2018-Apr-15 19:29N 34°43' E 138°19'611.3
2018-Apr-15 19:00N 34°38' E 138°18'5 9.7
2018-Apr-15 18:30N 34°34' E 138°15'4612.1
2018-Apr-15 14:41N 34°35' E 137°19'412.4
2018-Apr-15 14:22N 34°34' E 137°15'  

Dump ship's entire track history